createdAt,value
2019-04-01T00:01:22.139Z,22.73
2019-04-01T00:06:47.119Z,22.53
2019-04-01T00:12:11.877Z,22.83
2019-04-01T00:17:35.972Z,19.80
2019-04-01T00:23:00.373Z,22.33
2019-04-01T00:28:24.748Z,16.03
2019-04-01T00:33:48.735Z,28.13
2019-04-01T00:39:12.935Z,17.50
2019-04-01T00:44:40.241Z,13.90
2019-04-01T00:50:03.287Z,20.47
2019-04-01T00:55:27.909Z,23.50
2019-04-01T01:00:52.727Z,23.03
2019-04-01T01:06:17.253Z,21.50
2019-04-01T01:11:41.731Z,19.33
2019-04-01T01:17:06.155Z,25.33
2019-04-01T01:22:30.851Z,19.80
2019-04-01T01:27:55.479Z,21.77
2019-04-01T01:33:19.978Z,19.37
2019-04-01T01:38:44.607Z,23.57
2019-04-01T01:44:09.177Z,18.90
2019-04-01T01:49:33.853Z,17.67
2019-04-01T01:54:57.918Z,30.07
2019-04-01T02:00:23.651Z,19.97
2019-04-01T02:05:48.309Z,28.23
2019-04-01T02:11:12.867Z,23.77
2019-04-01T02:16:37.687Z,22.07
2019-04-01T02:22:02.129Z,24.80
2019-04-01T02:27:26.400Z,29.83
2019-04-01T02:32:51.043Z,27.47
2019-04-01T02:38:15.198Z,26.17
2019-04-01T02:43:39.437Z,15.93
2019-04-01T02:49:03.847Z,20.73
2019-04-01T02:54:28.645Z,20.97
2019-04-01T02:59:53.378Z,18.97
2019-04-01T03:05:17.478Z,24.37
2019-04-01T03:10:41.458Z,27.70
2019-04-01T03:16:05.862Z,18.73
2019-04-01T03:21:30.265Z,14.00
2019-04-01T03:26:54.882Z,25.80
2019-04-01T03:32:18.906Z,19.00
2019-04-01T03:37:43.581Z,22.40
2019-04-01T03:43:07.821Z,20.67
2019-04-01T03:48:32.417Z,21.30
2019-04-01T03:53:56.835Z,30.77
2019-04-01T03:59:21.336Z,21.97
2019-04-01T04:04:45.814Z,21.63
2019-04-01T04:10:10.842Z,18.67
2019-04-01T04:15:35.644Z,30.47
2019-04-01T04:20:59.992Z,23.07
2019-04-01T04:26:24.300Z,22.50
2019-04-01T04:31:48.751Z,21.53
2019-04-01T04:37:12.979Z,33.73
2019-04-01T04:47:46.631Z,17.80
2019-04-01T04:53:10.825Z,22.37
2019-04-01T04:58:35.071Z,29.33
2019-04-01T05:03:59.796Z,23.63
2019-04-01T05:09:24.670Z,21.17
2019-04-01T05:14:49.287Z,23.50
2019-04-01T05:20:16.336Z,22.17
2019-04-01T05:25:40.396Z,26.33
2019-04-01T05:31:07.268Z,15.13
2019-04-01T05:36:32.317Z,32.27
2019-04-01T05:41:57.277Z,31.40
2019-04-01T05:47:26.322Z,25.77
2019-04-01T05:52:50.996Z,19.13
2019-04-01T05:58:15.911Z,27.17
2019-04-01T06:03:40.830Z,31.40
2019-04-01T06:09:07.262Z,22.23
2019-04-01T06:14:32.139Z,24.13
2019-04-01T06:19:57.080Z,27.00
2019-04-01T06:25:21.690Z,25.53
2019-04-01T06:30:46.528Z,18.63
2019-04-01T06:36:11.366Z,28.97
2019-04-01T06:41:35.784Z,25.27
2019-04-01T06:47:00.463Z,30.03
2019-04-01T06:52:24.904Z,30.83
2019-04-01T06:57:49.768Z,29.50
2019-04-01T07:03:14.256Z,31.70
2019-04-01T07:08:38.809Z,21.77
2019-04-01T07:14:04.061Z,29.23
2019-04-01T07:19:28.868Z,26.30
2019-04-01T07:24:53.364Z,22.93
2019-04-01T07:30:36.741Z,34.67
2019-04-01T07:36:00.940Z,20.77
2019-04-01T07:41:25.953Z,40.47
2019-04-01T07:46:49.849Z,25.57
2019-04-01T07:52:14.807Z,33.37
2019-04-01T07:57:39.740Z,35.23
2019-04-01T08:03:05.036Z,34.23
2019-04-01T08:08:29.624Z,30.23
2019-04-01T08:13:54.795Z,27.53
2019-04-01T08:19:19.275Z,31.33
2019-04-01T08:24:44.573Z,14.07
2019-04-01T08:30:09.837Z,21.90
2019-04-01T08:35:34.272Z,34.33
2019-04-01T08:40:59.456Z,35.27
2019-04-01T08:46:23.574Z,28.17
2019-04-01T08:51:48.024Z,16.93
2019-04-01T08:57:12.364Z,25.70
2019-04-01T09:02:36.737Z,28.13
2019-04-01T09:08:02.696Z,38.13
2019-04-01T09:13:27.716Z,20.30
2019-04-01T09:18:53.082Z,20.37
2019-04-01T09:24:17.686Z,26.87
2019-04-01T09:29:41.899Z,17.33
2019-04-01T09:35:06.645Z,24.40
2019-04-01T09:40:31.015Z,30.87
2019-04-01T09:45:55.691Z,26.60
2019-04-01T09:51:20.358Z,20.60
2019-04-01T09:56:44.703Z,27.10
2019-04-01T10:02:09.757Z,22.43
2019-04-01T10:07:34.090Z,32.10
2019-04-01T10:12:59.207Z,21.70
2019-04-01T10:18:23.803Z,28.03
2019-04-01T10:23:48.169Z,19.10
2019-04-01T10:29:12.937Z,25.20
2019-04-01T10:34:37.916Z,20.07
2019-04-01T10:40:02.535Z,16.67
2019-04-01T10:45:27.206Z,20.10
2019-04-01T10:50:51.679Z,12.37
2019-04-01T10:56:16.213Z,17.27
2019-04-01T11:01:41.158Z,22.77
2019-04-01T11:07:05.037Z,18.80
2019-04-01T11:12:31.647Z,17.13
2019-04-01T11:17:55.982Z,16.47
2019-04-01T11:23:19.971Z,24.80
2019-04-01T11:28:44.880Z,16.37
2019-04-01T11:34:09.991Z,26.60
2019-04-01T11:39:34.258Z,19.33
2019-04-01T11:44:58.772Z,18.00
2019-04-01T11:50:23.217Z,19.87
2019-04-01T11:55:47.890Z,12.73
2019-04-01T12:01:12.866Z,16.80
2019-04-01T12:06:36.932Z,18.23
2019-04-01T12:12:03.237Z,17.00
2019-04-01T12:17:28.609Z,14.53
2019-04-01T12:22:52.787Z,16.77
2019-04-01T12:28:17.732Z,9.93
2019-04-01T12:33:42.340Z,17.10
2019-04-01T12:39:08.550Z,16.13
2019-04-01T12:44:33.053Z,18.17
2019-04-01T12:49:57.679Z,15.40
2019-04-01T12:55:22.542Z,13.43
2019-04-01T13:00:46.833Z,17.03
2019-04-01T13:06:11.743Z,10.40
2019-04-01T13:11:36.377Z,12.73
2019-04-01T13:17:02.380Z,15.03
2019-04-01T13:22:29.837Z,11.17
2019-04-01T13:27:54.043Z,14.67
2019-04-01T13:33:18.515Z,16.13
2019-04-01T13:38:43.981Z,13.07
2019-04-01T13:44:09.351Z,8.37
2019-04-01T13:49:34.667Z,14.63
2019-04-01T13:54:59.811Z,11.50
2019-04-01T14:00:27.416Z,11.97
2019-04-01T14:05:50.443Z,11.10
2019-04-01T14:11:15.616Z,10.73
2019-04-01T14:16:41.583Z,12.47
2019-04-01T14:22:06.435Z,12.37
2019-04-01T14:27:31.133Z,14.10
2019-04-01T14:32:55.821Z,16.23
2019-04-01T14:38:20.270Z,15.77
2019-04-01T14:43:44.404Z,21.62
2019-04-01T14:49:09.510Z,26.87
2019-04-01T14:54:37.625Z,10.27
2019-04-01T15:00:02.204Z,10.10
2019-04-01T15:05:27.242Z,13.77
2019-04-01T15:10:51.597Z,12.05
2019-04-01T15:16:16.327Z,18.13
2019-04-01T15:21:41.210Z,13.53
2019-04-01T15:27:05.541Z,8.40
2019-04-01T15:32:29.950Z,18.03
2019-04-01T15:37:54.262Z,13.00
2019-04-01T15:43:18.418Z,22.07
2019-04-01T15:48:50.686Z,17.80
2019-04-01T15:54:14.952Z,18.80
2019-04-01T15:59:39.941Z,13.00
2019-04-01T16:05:04.089Z,15.47
2019-04-01T16:10:29.446Z,14.10
2019-04-01T16:15:54.414Z,20.17
2019-04-01T16:21:19.619Z,20.17
2019-04-01T16:26:44.397Z,16.07
2019-04-01T16:32:08.546Z,14.55
2019-04-01T16:37:33.231Z,21.37
2019-04-01T16:42:58.046Z,18.10
2019-04-01T16:48:22.186Z,13.00
2019-04-01T16:53:46.313Z,12.25
2019-04-01T16:59:10.498Z,21.63
2019-04-01T17:04:34.847Z,13.40
2019-04-01T17:09:59.442Z,16.60
2019-04-01T17:15:24.035Z,19.63
2019-04-01T17:20:48.714Z,17.13
2019-04-01T17:26:13.233Z,15.57
2019-04-01T17:31:37.897Z,12.93
2019-04-01T17:37:02.717Z,11.60
2019-04-01T17:42:27.414Z,15.60
2019-04-01T17:47:51.575Z,17.07
2019-04-01T17:53:15.893Z,16.73
2019-04-01T17:58:40.794Z,16.63
2019-04-01T18:04:05.205Z,23.60
2019-04-01T18:09:30.934Z,18.63
2019-04-01T18:14:55.862Z,12.23
2019-04-01T18:20:20.545Z,22.97
2019-04-01T18:25:45.604Z,19.17
2019-04-01T18:31:10.771Z,20.10
2019-04-01T18:36:35.397Z,21.10
2019-04-01T18:41:59.963Z,22.17
2019-04-01T18:47:24.764Z,16.30
2019-04-01T18:52:49.572Z,22.45
2019-04-01T18:58:14.273Z,17.97
2019-04-01T19:03:39.487Z,24.90
2019-04-01T19:09:09.329Z,19.40
2019-04-01T19:14:33.258Z,28.80
2019-04-01T19:19:57.781Z,29.77
2019-04-01T19:25:23.378Z,22.43
2019-04-01T19:30:48.482Z,25.00
2019-04-01T19:36:13.058Z,37.90
2019-04-01T19:41:37.813Z,27.87
2019-04-01T19:47:02.287Z,23.53
2019-04-01T19:52:29.329Z,21.57
2019-04-01T19:58:15.541Z,31.80
2019-04-01T20:03:36.868Z,21.53
2019-04-01T20:09:01.490Z,25.07
2019-04-01T20:14:26.928Z,30.43
2019-04-01T20:19:51.690Z,26.87
2019-04-01T20:25:37.254Z,24.37
2019-04-01T20:31:06.408Z,23.47
2019-04-01T20:36:31.458Z,25.53
2019-04-01T20:41:57.150Z,29.07
2019-04-01T20:47:23.275Z,26.23
2019-04-01T20:52:50.134Z,28.23
2019-04-01T20:58:14.604Z,32.80
2019-04-01T21:03:58.109Z,42.33
2019-04-01T21:09:24.190Z,35.27
2019-04-01T21:14:48.454Z,29.73
2019-04-01T21:20:13.682Z,49.17
2019-04-01T21:25:38.352Z,44.60
2019-04-01T21:31:02.767Z,27.17
2019-04-01T21:36:27.424Z,35.27
2019-04-01T21:41:51.423Z,33.80
2019-04-01T21:47:15.948Z,38.10
2019-04-01T21:52:40.244Z,39.10
2019-04-01T21:58:04.851Z,35.50
2019-04-01T22:03:29.518Z,33.53
2019-04-01T22:08:55.744Z,45.70
2019-04-01T22:14:20.658Z,38.50
2019-04-01T22:19:45.198Z,28.63
2019-04-01T22:25:09.890Z,47.33
2019-04-01T22:30:34.516Z,39.67
2019-04-01T22:35:58.870Z,38.70
2019-04-01T22:41:23.205Z,43.27
2019-04-01T22:46:47.988Z,38.97
2019-04-01T22:52:12.082Z,38.30
2019-04-01T22:57:36.909Z,46.53
2019-04-01T23:03:01.663Z,43.97
2019-04-01T23:08:26.518Z,44.13
2019-04-01T23:13:51.120Z,38.43
2019-04-01T23:19:15.757Z,42.30
2019-04-01T23:24:40.145Z,35.00
2019-04-01T23:30:06.639Z,45.43
2019-04-01T23:35:30.683Z,38.47
2019-04-01T23:40:54.960Z,33.67
2019-04-01T23:46:20.430Z,36.83
2019-04-01T23:51:44.612Z,43.50
2019-04-01T23:57:08.495Z,40.50
